Lockbourne, Ohio
Current Conditions -  °F | °C
As of 12:35 AM on Thursday 27 Nov 2014 (Local Time) from KLCK Reporting Station
Broken Clouds Broken Clouds  
Wind Chill: 26°   Ceiling: 3200
Heat Index: 32°   Visibility: 10mi
Dew Point: 26°   Wind: 7mph
Humidity: 79%   Direction: 320°NW
Pressure: 30.04"   Gusts: NA
Location:  39.81°N, 82.97°W
Report Text: KLCK 270535Z AUTO 32006KT 10SM BKN032 00/M03 A3004 RMK AO2 T00001032
Loading
Personal Weather Stations






























Interactive Weather Map New forecast layout! Learn more

10-Day Weather Forecast

Advertisements
Track Severe Weather on mobile